Addis, Louisiana
Current Conditions -  °F | °C
As of 12:53 AM on Thursday 18 Dec 2014 (Local Time) from KBTR Reporting Station
Clear Clear  
Wind Chill: 43°   Ceiling: Unl
Heat Index: 45°   Visibility: 10mi
Dew Point: 41°   Wind: 5mph
Humidity: 86%   Direction: 30°NNE
Pressure: 30.18"   Gusts: NA
Location:  30.35°N, 91.27°W
Report Text: KBTR 180653Z AUTO 03004KT 10SM CLR 07/05 A3018 RMK AO2 SLP217 T00720050 TSNO
Loading
Personal Weather Stations






























Interactive Weather Map New forecast layout! Learn more

10-Day Weather Forecast

Advertisements
Track Severe Weather on mobile